sensor_id;sensor_type;location;lat;lon;timestamp;P1;durP1;ratioP1;P2;durP2;ratioP2
14268;SDS011;7218;51.480;7.006;2023-01-01T00:02:21;21.00;;;11.60;;
14268;SDS011;7218;51.480;7.006;2023-01-01T00:04:48;15.85;;;8.90;;
14268;SDS011;7218;51.480;7.006;2023-01-01T00:07:14;15.15;;;8.50;;
14268;SDS011;7218;51.480;7.006;2023-01-01T00:09:41;16.30;;;7.80;;
14268;SDS011;7218;51.480;7.006;2023-01-01T00:12:25;12.55;;;7.10;;
14268;SDS011;7218;51.480;7.006;2023-01-01T00:14:51;15.50;;;8.43;;
14268;SDS011;7218;51.480;7.006;2023-01-01T00:17:20;12.23;;;7.05;;
14268;SDS011;7218;51.480;7.006;2023-01-01T00:19:46;15.70;;;6.50;;
14268;SDS011;7218;51.480;7.006;2023-01-01T00:22:13;17.20;;;7.13;;
14268;SDS011;7218;51.480;7.006;2023-01-01T00:24:40;9.07;;;5.13;;
14268;SDS011;7218;51.480;7.006;2023-01-01T00:27:07;8.15;;;4.80;;
14268;SDS011;7218;51.480;7.006;2023-01-01T00:29:34;9.40;;;5.20;;
14268;SDS011;7218;51.480;7.006;2023-01-01T00:32:01;10.55;;;4.68;;
14268;SDS011;7218;51.480;7.006;2023-01-01T00:34:29;11.80;;;4.60;;
14268;SDS011;7218;51.480;7.006;2023-01-01T00:36:55;12.40;;;5.70;;
14268;SDS011;7218;51.480;7.006;2023-01-01T00:39:22;14.57;;;9.15;;
14268;SDS011;7218;51.480;7.006;2023-01-01T00:41:49;19.73;;;10.27;;
14268;SDS011;7218;51.480;7.006;2023-01-01T00:44:16;19.33;;;12.32;;
14268;SDS011;7218;51.480;7.006;2023-01-01T00:46:42;24.20;;;16.23;;
14268;SDS011;7218;51.480;7.006;2023-01-01T00:49:09;23.08;;;15.05;;
14268;SDS011;7218;51.480;7.006;2023-01-01T00:51:37;23.00;;;16.00;;
14268;SDS011;7218;51.480;7.006;2023-01-01T00:54:04;24.30;;;15.73;;
14268;SDS011;7218;51.480;7.006;2023-01-01T00:56:30;23.50;;;15.52;;
14268;SDS011;7218;51.480;7.006;2023-01-01T00:58:57;22.27;;;15.77;;
14268;SDS011;7218;51.480;7.006;2023-01-01T01:01:24;21.95;;;14.55;;
14268;SDS011;7218;51.480;7.006;2023-01-01T01:03:50;21.02;;;14.63;;
14268;SDS011;7218;51.480;7.006;2023-01-01T01:06:17;21.98;;;14.55;;
14268;SDS011;7218;51.480;7.006;2023-01-01T01:08:46;20.88;;;11.38;;
14268;SDS011;7218;51.480;7.006;2023-01-01T01:11:14;19.38;;;12.30;;
14268;SDS011;7218;51.480;7.006;2023-01-01T01:13:42;18.40;;;9.60;;
14268;SDS011;7218;51.480;7.006;2023-01-01T01:16:10;12.85;;;8.15;;
14268;SDS011;7218;51.480;7.006;2023-01-01T01:18:38;15.32;;;7.22;;
14268;SDS011;7218;51.480;7.006;2023-01-01T01:21:05;11.80;;;6.68;;
14268;SDS011;7218;51.480;7.006;2023-01-01T01:23:32;10.55;;;6.28;;
14268;SDS011;7218;51.480;7.006;2023-01-01T01:26:07;10.43;;;6.15;;
14268;SDS011;7218;51.480;7.006;2023-01-01T01:28:34;10.80;;;5.72;;
14268;SDS011;7218;51.480;7.006;2023-01-01T01:31:01;11.48;;;4.80;;
14268;SDS011;7218;51.480;7.006;2023-01-01T01:33:28;9.02;;;4.05;;
14268;SDS011;7218;51.480;7.006;2023-01-01T01:35:54;8.40;;;4.38;;
14268;SDS011;7218;51.480;7.006;2023-01-01T01:38:21;10.15;;;4.18;;
14268;SDS011;7218;51.480;7.006;2023-01-01T01:40:47;10.15;;;4.05;;
14268;SDS011;7218;51.480;7.006;2023-01-01T01:43:18;7.68;;;3.60;;
14268;SDS011;7218;51.480;7.006;2023-01-01T01:45:47;7.43;;;3.42;;
14268;SDS011;7218;51.480;7.006;2023-01-01T01:48:14;7.43;;;3.50;;
14268;SDS011;7218;51.480;7.006;2023-01-01T01:50:42;8.05;;;3.47;;
14268;SDS011;7218;51.480;7.006;2023-01-01T01:53:13;5.60;;;3.08;;
14268;SDS011;7218;51.480;7.006;2023-01-01T01:55:45;8.48;;;3.25;;
14268;SDS011;7218;51.480;7.006;2023-01-01T01:58:13;5.85;;;3.58;;
14268;SDS011;7218;51.480;7.006;2023-01-01T02:00:42;6.28;;;3.13;;
14268;SDS011;7218;51.480;7.006;2023-01-01T02:03:10;5.18;;;3.03;;
14268;SDS011;7218;51.480;7.006;2023-01-01T02:05:40;8.20;;;3.10;;
14268;SDS011;7218;51.480;7.006;2023-01-01T02:08:07;4.25;;;2.92;;
14268;SDS011;7218;51.480;7.006;2023-01-01T02:10:35;5.85;;;3.05;;
14268;SDS011;7218;51.480;7.006;2023-01-01T02:13:01;8.23;;;2.85;;
14268;SDS011;7218;51.480;7.006;2023-01-01T02:15:29;6.07;;;2.60;;
14268;SDS011;7218;51.480;7.006;2023-01-01T02:18:02;6.00;;;2.13;;
14268;SDS011;7218;51.480;7.006;2023-01-01T02:20:35;6.10;;;2.65;;
14268;SDS011;7218;51.480;7.006;2023-01-01T02:26:16;6.50;;;3.80;;
14268;SDS011;7218;51.480;7.006;2023-01-01T02:29:05;9.07;;;5.75;;
14268;SDS011;7218;51.480;7.006;2023-01-01T02:31:39;11.80;;;6.55;;
14268;SDS011;7218;51.480;7.006;2023-01-01T02:34:10;12.13;;;7.20;;
14268;SDS011;7218;51.480;7.006;2023-01-01T02:36:42;15.60;;;7.47;;
14268;SDS011;7218;51.480;7.006;2023-01-01T02:39:13;10.27;;;6.55;;
14268;SDS011;7218;51.480;7.006;2023-01-01T02:41:42;9.75;;;6.65;;
14268;SDS011;7218;51.480;7.006;2023-01-01T02:44:13;9.02;;;5.90;;
14268;SDS011;7218;51.480;7.006;2023-01-01T02:46:41;8.88;;;5.80;;
14268;SDS011;7218;51.480;7.006;2023-01-01T02:49:08;11.50;;;4.97;;
14268;SDS011;7218;51.480;7.006;2023-01-01T02:51:38;6.43;;;4.50;;
14268;SDS011;7218;51.480;7.006;2023-01-01T02:54:10;4.57;;;3.70;;
14268;SDS011;7218;51.480;7.006;2023-01-01T02:56:41;5.28;;;3.70;;
14268;SDS011;7218;51.480;7.006;2023-01-01T02:59:14;6.80;;;3.60;;
14268;SDS011;7218;51.480;7.006;2023-01-01T03:02:21;7.28;;;3.53;;
14268;SDS011;7218;51.480;7.006;2023-01-01T03:04:59;6.13;;;3.08;;
14268;SDS011;7218;51.480;7.006;2023-01-01T03:07:34;4.55;;;2.67;;
14268;SDS011;7218;51.480;7.006;2023-01-01T03:10:08;4.03;;;2.42;;
14268;SDS011;7218;51.480;7.006;2023-01-01T03:12:41;5.90;;;2.60;;
14268;SDS011;7218;51.480;7.006;2023-01-01T03:15:20;3.47;;;2.10;;
14268;SDS011;7218;51.480;7.006;2023-01-01T03:17:54;5.55;;;2.05;;
14268;SDS011;7218;51.480;7.006;2023-01-01T03:20:27;5.70;;;2.00;;
14268;SDS011;7218;51.480;7.006;2023-01-01T03:22:58;3.78;;;2.00;;
14268;SDS011;7218;51.480;7.006;2023-01-01T03:25:30;4.32;;;1.63;;
14268;SDS011;7218;51.480;7.006;2023-01-01T03:28:01;4.70;;;1.85;;
14268;SDS011;7218;51.480;7.006;2023-01-01T03:30:34;6.18;;;1.83;;
14268;SDS011;7218;51.480;7.006;2023-01-01T03:33:04;3.45;;;1.70;;
14268;SDS011;7218;51.480;7.006;2023-01-01T03:35:37;3.08;;;1.77;;
14268;SDS011;7218;51.480;7.006;2023-01-01T03:38:09;3.05;;;1.73;;
14268;SDS011;7218;51.480;7.006;2023-01-01T03:40:42;5.35;;;1.80;;
14268;SDS011;7218;51.480;7.006;2023-01-01T03:43:13;4.10;;;1.52;;
14268;SDS011;7218;51.480;7.006;2023-01-01T03:45:46;4.95;;;1.75;;
14268;SDS011;7218;51.480;7.006;2023-01-01T03:48:15;5.32;;;1.95;;
14268;SDS011;7218;51.480;7.006;2023-01-01T03:50:45;3.20;;;1.50;;
14268;SDS011;7218;51.480;7.006;2023-01-01T03:53:22;3.47;;;1.55;;
14268;SDS011;7218;51.480;7.006;2023-01-01T03:55:56;5.32;;;1.60;;
14268;SDS011;7218;51.480;7.006;2023-01-01T03:58:32;2.97;;;1.40;;
14268;SDS011;7218;51.480;7.006;2023-01-01T04:01:03;3.50;;;1.42;;
14268;SDS011;7218;51.480;7.006;2023-01-01T04:03:36;2.10;;;1.20;;
14268;SDS011;7218;51.480;7.006;2023-01-01T04:06:04;4.78;;;1.35;;
14268;SDS011;7218;51.480;7.006;2023-01-01T04:08:32;3.00;;;1.40;;
14268;SDS011;7218;51.480;7.006;2023-01-01T04:10:59;3.40;;;1.63;;
14268;SDS011;7218;51.480;7.006;2023-01-01T04:13:50;2.25;;;1.42;;
14268;SDS011;7218;51.480;7.006;2023-01-01T04:16:18;5.00;;;1.50;;
14268;SDS011;7218;51.480;7.006;2023-01-01T04:18:44;7.05;;;1.70;;
14268;SDS011;7218;51.480;7.006;2023-01-01T04:21:10;4.55;;;1.30;;
14268;SDS011;7218;51.480;7.006;2023-01-01T04:23:37;5.28;;;1.73;;
14268;SDS011;7218;51.480;7.006;2023-01-01T04:26:04;6.18;;;1.67;;
14268;SDS011;7218;51.480;7.006;2023-01-01T04:28:30;5.70;;;1.50;;
14268;SDS011;7218;51.480;7.006;2023-01-01T04:30:59;5.72;;;1.45;;
14268;SDS011;7218;51.480;7.006;2023-01-01T04:33:27;6.60;;;1.60;;
14268;SDS011;7218;51.480;7.006;2023-01-01T04:35:54;4.28;;;1.70;;
14268;SDS011;7218;51.480;7.006;2023-01-01T04:38:20;3.53;;;1.60;;
14268;SDS011;7218;51.480;7.006;2023-01-01T04:40:55;6.18;;;1.70;;
14268;SDS011;7218;51.480;7.006;2023-01-01T04:43:23;4.18;;;1.92;;
14268;SDS011;7218;51.480;7.006;2023-01-01T04:45:53;4.97;;;1.70;;
14268;SDS011;7218;51.480;7.006;2023-01-01T04:48:20;4.75;;;1.40;;
14268;SDS011;7218;51.480;7.006;2023-01-01T04:50:53;4.05;;;1.70;;
14268;SDS011;7218;51.480;7.006;2023-01-01T04:53:20;5.13;;;1.60;;
14268;SDS011;7218;51.480;7.006;2023-01-01T04:55:47;2.53;;;1.58;;
14268;SDS011;7218;51.480;7.006;2023-01-01T04:58:13;5.75;;;2.10;;
14268;SDS011;7218;51.480;7.006;2023-01-01T05:00:40;3.70;;;1.45;;
14268;SDS011;7218;51.480;7.006;2023-01-01T05:03:06;6.10;;;1.88;;
14268;SDS011;7218;51.480;7.006;2023-01-01T05:05:33;5.15;;;1.70;;
14268;SDS011;7218;51.480;7.006;2023-01-01T05:08:00;4.63;;;1.58;;
14268;SDS011;7218;51.480;7.006;2023-01-01T05:10:27;4.85;;;1.88;;
14268;SDS011;7218;51.480;7.006;2023-01-01T05:12:54;4.82;;;1.33;;
14268;SDS011;7218;51.480;7.006;2023-01-01T05:15:20;5.30;;;1.60;;
14268;SDS011;7218;51.480;7.006;2023-01-01T05:17:47;3.35;;;1.40;;
14268;SDS011;7218;51.480;7.006;2023-01-01T05:20:13;3.88;;;1.80;;
14268;SDS011;7218;51.480;7.006;2023-01-01T05:22:40;3.50;;;1.50;;
14268;SDS011;7218;51.480;7.006;2023-01-01T05:25:08;3.20;;;1.70;;
14268;SDS011;7218;51.480;7.006;2023-01-01T05:27:34;3.13;;;1.70;;
14268;SDS011;7218;51.480;7.006;2023-01-01T05:30:01;1.73;;;1.20;;
14268;SDS011;7218;51.480;7.006;2023-01-01T05:32:27;4.30;;;1.80;;
14268;SDS011;7218;51.480;7.006;2023-01-01T05:34:54;3.38;;;1.70;;
14268;SDS011;7218;51.480;7.006;2023-01-01T05:37:20;2.97;;;1.25;;
14268;SDS011;7218;51.480;7.006;2023-01-01T05:39:47;4.32;;;1.65;;
14268;SDS011;7218;51.480;7.006;2023-01-01T05:42:14;3.88;;;1.65;;
14268;SDS011;7218;51.480;7.006;2023-01-01T05:44:42;4.90;;;1.60;;
14268;SDS011;7218;51.480;7.006;2023-01-01T05:47:09;5.88;;;1.70;;
14268;SDS011;7218;51.480;7.006;2023-01-01T05:49:36;4.68;;;1.40;;
14268;SDS011;7218;51.480;7.006;2023-01-01T05:52:03;5.00;;;1.70;;
14268;SDS011;7218;51.480;7.006;2023-01-01T05:54:30;3.90;;;1.40;;
14268;SDS011;7218;51.480;7.006;2023-01-01T05:56:56;6.03;;;1.98;;
14268;SDS011;7218;51.480;7.006;2023-01-01T05:59:24;3.53;;;1.55;;
14268;SDS011;7218;51.480;7.006;2023-01-01T06:01:50;3.53;;;1.33;;
14268;SDS011;7218;51.480;7.006;2023-01-01T06:04:17;5.57;;;1.77;;
14268;SDS011;7218;51.480;7.006;2023-01-01T06:06:43;4.25;;;1.65;;
14268;SDS011;7218;51.480;7.006;2023-01-01T06:09:10;4.00;;;1.73;;
14268;SDS011;7218;51.480;7.006;2023-01-01T06:11:36;3.35;;;1.58;;
14268;SDS011;7218;51.480;7.006;2023-01-01T06:14:04;3.38;;;1.58;;
14268;SDS011;7218;51.480;7.006;2023-01-01T06:16:32;5.63;;;1.55;;
14268;SDS011;7218;51.480;7.006;2023-01-01T06:18:59;2.72;;;1.40;;
14268;SDS011;7218;51.480;7.006;2023-01-01T06:21:26;3.70;;;1.80;;
14268;SDS011;7218;51.480;7.006;2023-01-01T06:23:54;3.08;;;1.60;;
14268;SDS011;7218;51.480;7.006;2023-01-01T06:26:22;3.55;;;1.50;;
14268;SDS011;7218;51.480;7.006;2023-01-01T06:28:50;3.45;;;1.25;;
14268;SDS011;7218;51.480;7.006;2023-01-01T06:31:17;3.53;;;1.38;;
14268;SDS011;7218;51.480;7.006;2023-01-01T06:33:47;3.55;;;1.48;;
14268;SDS011;7218;51.480;7.006;2023-01-01T06:36:15;4.05;;;1.50;;
14268;SDS011;7218;51.480;7.006;2023-01-01T06:38:44;6.35;;;1.60;;
14268;SDS011;7218;51.480;7.006;2023-01-01T06:41:12;4.28;;;1.45;;
14268;SDS011;7218;51.480;7.006;2023-01-01T06:43:40;3.15;;;1.50;;
14268;SDS011;7218;51.480;7.006;2023-01-01T06:46:16;2.28;;;1.35;;
14268;SDS011;7218;51.480;7.006;2023-01-01T06:48:44;2.92;;;1.40;;
14268;SDS011;7218;51.480;7.006;2023-01-01T06:51:13;4.78;;;1.50;;
14268;SDS011;7218;51.480;7.006;2023-01-01T06:53:41;4.68;;;1.83;;
14268;SDS011;7218;51.480;7.006;2023-01-01T06:56:07;5.03;;;1.40;;
14268;SDS011;7218;51.480;7.006;2023-01-01T06:58:34;5.10;;;1.60;;
14268;SDS011;7218;51.480;7.006;2023-01-01T07:01:02;4.57;;;1.40;;
14268;SDS011;7218;51.480;7.006;2023-01-01T07:03:29;3.97;;;1.50;;
14268;SDS011;7218;51.480;7.006;2023-01-01T07:05:56;5.13;;;1.63;;
14268;SDS011;7218;51.480;7.006;2023-01-01T07:08:23;4.35;;;1.60;;
14268;SDS011;7218;51.480;7.006;2023-01-01T07:10:50;5.53;;;1.70;;
14268;SDS011;7218;51.480;7.006;2023-01-01T07:13:16;5.35;;;1.50;;
14268;SDS011;7218;51.480;7.006;2023-01-01T07:15:43;4.93;;;1.42;;
14268;SDS011;7218;51.480;7.006;2023-01-01T07:18:09;3.58;;;1.65;;
14268;SDS011;7218;51.480;7.006;2023-01-01T07:20:36;4.13;;;1.50;;
14268;SDS011;7218;51.480;7.006;2023-01-01T07:23:02;5.25;;;1.48;;
14268;SDS011;7218;51.480;7.006;2023-01-01T07:25:30;3.80;;;1.60;;
14268;SDS011;7218;51.480;7.006;2023-01-01T07:27:56;4.53;;;1.73;;
14268;SDS011;7218;51.480;7.006;2023-01-01T07:30:23;4.20;;;1.73;;
14268;SDS011;7218;51.480;7.006;2023-01-01T07:32:53;4.30;;;1.60;;
14268;SDS011;7218;51.480;7.006;2023-01-01T07:35:19;2.88;;;1.35;;
14268;SDS011;7218;51.480;7.006;2023-01-01T07:37:46;4.13;;;1.85;;
14268;SDS011;7218;51.480;7.006;2023-01-01T07:40:12;4.40;;;1.50;;
14268;SDS011;7218;51.480;7.006;2023-01-01T07:42:40;4.90;;;1.65;;
14268;SDS011;7218;51.480;7.006;2023-01-01T07:45:08;7.25;;;1.83;;
14268;SDS011;7218;51.480;7.006;2023-01-01T07:47:36;5.55;;;1.88;;
14268;SDS011;7218;51.480;7.006;2023-01-01T07:50:03;3.75;;;1.90;;
14268;SDS011;7218;51.480;7.006;2023-01-01T07:52:30;4.20;;;1.83;;
14268;SDS011;7218;51.480;7.006;2023-01-01T07:54:56;7.72;;;1.90;;
14268;SDS011;7218;51.480;7.006;2023-01-01T07:57:23;4.88;;;1.95;;
14268;SDS011;7218;51.480;7.006;2023-01-01T07:59:51;5.65;;;1.60;;
14268;SDS011;7218;51.480;7.006;2023-01-01T08:02:17;3.88;;;1.70;;
14268;SDS011;7218;51.480;7.006;2023-01-01T08:04:43;4.85;;;1.90;;
14268;SDS011;7218;51.480;7.006;2023-01-01T08:07:10;3.97;;;1.80;;
14268;SDS011;7218;51.480;7.006;2023-01-01T08:09:36;5.47;;;1.80;;
14268;SDS011;7218;51.480;7.006;2023-01-01T08:12:03;9.63;;;2.10;;
14268;SDS011;7218;51.480;7.006;2023-01-01T08:14:30;3.97;;;1.80;;
14268;SDS011;7218;51.480;7.006;2023-01-01T08:16:57;6.72;;;2.10;;
14268;SDS011;7218;51.480;7.006;2023-01-01T08:19:24;6.50;;;1.95;;
14268;SDS011;7218;51.480;7.006;2023-01-01T08:21:50;3.53;;;1.75;;
14268;SDS011;7218;51.480;7.006;2023-01-01T08:24:17;4.50;;;1.77;;
14268;SDS011;7218;51.480;7.006;2023-01-01T08:26:43;6.15;;;2.08;;
14268;SDS011;7218;51.480;7.006;2023-01-01T08:29:13;7.30;;;2.03;;
14268;SDS011;7218;51.480;7.006;2023-01-01T08:31:39;8.85;;;2.17;;
14268;SDS011;7218;51.480;7.006;2023-01-01T08:34:07;4.40;;;1.83;;
14268;SDS011;7218;51.480;7.006;2023-01-01T08:36:34;5.30;;;2.10;;
14268;SDS011;7218;51.480;7.006;2023-01-01T08:39:04;3.88;;;1.90;;
14268;SDS011;7218;51.480;7.006;2023-01-01T08:41:31;6.28;;;2.10;;
14268;SDS011;7218;51.480;7.006;2023-01-01T08:43:57;6.57;;;1.77;;
14268;SDS011;7218;51.480;7.006;2023-01-01T08:46:24;5.30;;;1.80;;
14268;SDS011;7218;51.480;7.006;2023-01-01T08:48:51;4.18;;;2.10;;
14268;SDS011;7218;51.480;7.006;2023-01-01T08:51:19;4.68;;;1.60;;
14268;SDS011;7218;51.480;7.006;2023-01-01T08:53:45;3.90;;;1.80;;
14268;SDS011;7218;51.480;7.006;2023-01-01T08:56:12;6.70;;;1.90;;
14268;SDS011;7218;51.480;7.006;2023-01-01T08:58:40;6.03;;;2.05;;
14268;SDS011;7218;51.480;7.006;2023-01-01T09:01:08;10.05;;;2.00;;
14268;SDS011;7218;51.480;7.006;2023-01-01T09:03:35;5.85;;;2.03;;
14268;SDS011;7218;51.480;7.006;2023-01-01T09:06:02;5.80;;;1.77;;
14268;SDS011;7218;51.480;7.006;2023-01-01T09:08:31;6.88;;;1.70;;
14268;SDS011;7218;51.480;7.006;2023-01-01T09:10:58;6.35;;;1.75;;
14268;SDS011;7218;51.480;7.006;2023-01-01T09:13:26;6.15;;;1.92;;
14268;SDS011;7218;51.480;7.006;2023-01-01T09:15:53;6.10;;;2.03;;
14268;SDS011;7218;51.480;7.006;2023-01-01T09:18:19;7.68;;;2.35;;
14268;SDS011;7218;51.480;7.006;2023-01-01T09:20:46;5.43;;;2.00;;
14268;SDS011;7218;51.480;7.006;2023-01-01T09:23:13;4.45;;;1.80;;
14268;SDS011;7218;51.480;7.006;2023-01-01T09:25:40;7.30;;;2.10;;
14268;SDS011;7218;51.480;7.006;2023-01-01T09:28:07;6.38;;;1.67;;
14268;SDS011;7218;51.480;7.006;2023-01-01T09:30:37;5.18;;;1.90;;
14268;SDS011;7218;51.480;7.006;2023-01-01T09:33:03;7.28;;;2.17;;
14268;SDS011;7218;51.480;7.006;2023-01-01T09:35:30;5.88;;;2.13;;
14268;SDS011;7218;51.480;7.006;2023-01-01T09:37:57;4.65;;;2.00;;
14268;SDS011;7218;51.480;7.006;2023-01-01T09:40:26;7.63;;;2.20;;
14268;SDS011;7218;51.480;7.006;2023-01-01T09:42:59;4.68;;;2.05;;
14268;SDS011;7218;51.480;7.006;2023-01-01T09:45:36;5.50;;;1.80;;
14268;SDS011;7218;51.480;7.006;2023-01-01T09:48:11;3.72;;;1.77;;
14268;SDS011;7218;51.480;7.006;2023-01-01T09:50:41;5.47;;;1.80;;
14268;SDS011;7218;51.480;7.006;2023-01-01T09:53:11;4.20;;;1.80;;
14268;SDS011;7218;51.480;7.006;2023-01-01T09:55:43;7.05;;;2.13;;
14268;SDS011;7218;51.480;7.006;2023-01-01T09:58:15;7.70;;;1.92;;
14268;SDS011;7218;51.480;7.006;2023-01-01T10:00:44;6.35;;;2.15;;
14268;SDS011;7218;51.480;7.006;2023-01-01T10:03:17;6.43;;;2.15;;
14268;SDS011;7218;51.480;7.006;2023-01-01T10:05:52;5.80;;;2.22;;
14268;SDS011;7218;51.480;7.006;2023-01-01T10:08:28;4.40;;;1.90;;
14268;SDS011;7218;51.480;7.006;2023-01-01T10:11:04;3.53;;;1.55;;
14268;SDS011;7218;51.480;7.006;2023-01-01T10:13:40;5.70;;;1.92;;
14268;SDS011;7218;51.480;7.006;2023-01-01T10:16:10;7.28;;;2.13;;
14268;SDS011;7218;51.480;7.006;2023-01-01T10:18:42;4.93;;;1.88;;
14268;SDS011;7218;51.480;7.006;2023-01-01T10:21:11;5.82;;;2.05;;
14268;SDS011;7218;51.480;7.006;2023-01-01T10:23:43;8.07;;;1.90;;
14268;SDS011;7218;51.480;7.006;2023-01-01T10:26:13;6.53;;;2.08;;
14268;SDS011;7218;51.480;7.006;2023-01-01T10:28:45;5.43;;;1.90;;
14268;SDS011;7218;51.480;7.006;2023-01-01T10:31:21;7.47;;;2.25;;
14268;SDS011;7218;51.480;7.006;2023-01-01T10:33:54;6.38;;;1.95;;
14268;SDS011;7218;51.480;7.006;2023-01-01T10:36:22;5.50;;;2.03;;
14268;SDS011;7218;51.480;7.006;2023-01-01T10:38:51;7.20;;;1.98;;
14268;SDS011;7218;51.480;7.006;2023-01-01T10:41:18;5.05;;;1.80;;
14268;SDS011;7218;51.480;7.006;2023-01-01T10:43:48;6.38;;;1.98;;
14268;SDS011;7218;51.480;7.006;2023-01-01T10:46:15;6.70;;;2.22;;
14268;SDS011;7218;51.480;7.006;2023-01-01T10:51:31;5.05;;;1.88;;
14268;SDS011;7218;51.480;7.006;2023-01-01T10:53:58;5.28;;;1.83;;
14268;SDS011;7218;51.480;7.006;2023-01-01T10:56:25;6.30;;;1.92;;
14268;SDS011;7218;51.480;7.006;2023-01-01T10:59:07;5.38;;;2.00;;
14268;SDS011;7218;51.480;7.006;2023-01-01T11:04:50;6.75;;;1.85;;
14268;SDS011;7218;51.480;7.006;2023-01-01T11:07:24;6.80;;;2.00;;
14268;SDS011;7218;51.480;7.006;2023-01-01T11:09:54;3.95;;;1.80;;
14268;SDS011;7218;51.480;7.006;2023-01-01T11:12:24;4.38;;;1.90;;
14268;SDS011;7218;51.480;7.006;2023-01-01T11:14:56;6.40;;;2.22;;
14268;SDS011;7218;51.480;7.006;2023-01-01T11:17:24;6.70;;;1.88;;
14268;SDS011;7218;51.480;7.006;2023-01-01T11:19:52;5.55;;;1.92;;
14268;SDS011;7218;51.480;7.006;2023-01-01T11:22:39;4.43;;;1.92;;
14268;SDS011;7218;51.480;7.006;2023-01-01T11:25:17;5.43;;;2.00;;
14268;SDS011;7218;51.480;7.006;2023-01-01T11:27:46;7.07;;;1.95;;
14268;SDS011;7218;51.480;7.006;2023-01-01T11:32:56;9.20;;;2.40;;
14268;SDS011;7218;51.480;7.006;2023-01-01T11:35:26;5.53;;;1.90;;
14268;SDS011;7218;51.480;7.006;2023-01-01T11:37:56;6.93;;;1.85;;
14268;SDS011;7218;51.480;7.006;2023-01-01T11:40:24;7.28;;;2.00;;
14268;SDS011;7218;51.480;7.006;2023-01-01T11:42:56;7.50;;;2.00;;
14268;SDS011;7218;51.480;7.006;2023-01-01T11:45:27;5.07;;;1.85;;
14268;SDS011;7218;51.480;7.006;2023-01-01T11:48:00;4.75;;;1.83;;
14268;SDS011;7218;51.480;7.006;2023-01-01T11:50:31;5.45;;;2.10;;
14268;SDS011;7218;51.480;7.006;2023-01-01T11:53:15;6.00;;;1.98;;
14268;SDS011;7218;51.480;7.006;2023-01-01T11:55:44;8.63;;;2.35;;
14268;SDS011;7218;51.480;7.006;2023-01-01T11:58:15;5.47;;;1.92;;
14268;SDS011;7218;51.480;7.006;2023-01-01T12:00:46;7.68;;;2.00;;
14268;SDS011;7218;51.480;7.006;2023-01-01T12:03:20;5.38;;;1.80;;
14268;SDS011;7218;51.480;7.006;2023-01-01T12:05:51;7.93;;;2.25;;
14268;SDS011;7218;51.480;7.006;2023-01-01T12:08:24;6.43;;;1.90;;
14268;SDS011;7218;51.480;7.006;2023-01-01T12:10:59;5.68;;;1.90;;
14268;SDS011;7218;51.480;7.006;2023-01-01T12:13:36;6.40;;;2.00;;
14268;SDS011;7218;51.480;7.006;2023-01-01T12:16:11;6.50;;;1.95;;
14268;SDS011;7218;51.480;7.006;2023-01-01T12:18:43;6.68;;;1.95;;
14268;SDS011;7218;51.480;7.006;2023-01-01T12:21:14;5.18;;;1.60;;
14268;SDS011;7218;51.480;7.006;2023-01-01T12:23:44;6.80;;;2.10;;
14268;SDS011;7218;51.480;7.006;2023-01-01T12:26:12;5.68;;;1.98;;
14268;SDS011;7218;51.480;7.006;2023-01-01T12:28:50;10.07;;;2.10;;
14268;SDS011;7218;51.480;7.006;2023-01-01T12:31:36;8.80;;;2.20;;
14268;SDS011;7218;51.480;7.006;2023-01-01T12:34:11;6.65;;;1.90;;
14268;SDS011;7218;51.480;7.006;2023-01-01T12:36:57;7.20;;;2.10;;
14268;SDS011;7218;51.480;7.006;2023-01-01T12:42:54;5.57;;;1.73;;
14268;SDS011;7218;51.480;7.006;2023-01-01T12:45:30;6.57;;;1.90;;
14268;SDS011;7218;51.480;7.006;2023-01-01T12:48:11;5.30;;;1.90;;
14268;SDS011;7218;51.480;7.006;2023-01-01T12:50:56;5.28;;;2.15;;
14268;SDS011;7218;51.480;7.006;2023-01-01T12:53:28;4.45;;;1.80;;
14268;SDS011;7218;51.480;7.006;2023-01-01T12:56:04;5.97;;;1.90;;
14268;SDS011;7218;51.480;7.006;2023-01-01T12:58:39;6.25;;;2.20;;
14268;SDS011;7218;51.480;7.006;2023-01-01T13:01:09;4.85;;;2.05;;
14268;SDS011;7218;51.480;7.006;2023-01-01T13:03:42;6.18;;;1.90;;
14268;SDS011;7218;51.480;7.006;2023-01-01T13:06:15;6.43;;;2.25;;
14268;SDS011;7218;51.480;7.006;2023-01-01T13:08:46;8.32;;;2.10;;
14268;SDS011;7218;51.480;7.006;2023-01-01T13:11:19;6.70;;;1.77;;
14268;SDS011;7218;51.480;7.006;2023-01-01T13:13:47;8.35;;;1.80;;
14268;SDS011;7218;51.480;7.006;2023-01-01T13:16:17;4.85;;;1.90;;
14268;SDS011;7218;51.480;7.006;2023-01-01T13:18:58;4.97;;;1.80;;
14268;SDS011;7218;51.480;7.006;2023-01-01T13:21:26;8.00;;;2.10;;
14268;SDS011;7218;51.480;7.006;2023-01-01T13:23:54;6.20;;;1.92;;
14268;SDS011;7218;51.480;7.006;2023-01-01T13:26:32;7.47;;;2.00;;
14268;SDS011;7218;51.480;7.006;2023-01-01T13:32:11;7.07;;;2.40;;
14268;SDS011;7218;51.480;7.006;2023-01-01T13:37:42;8.18;;;2.50;;
14268;SDS011;7218;51.480;7.006;2023-01-01T13:43:18;11.38;;;2.40;;
14268;SDS011;7218;51.480;7.006;2023-01-01T13:45:50;5.72;;;2.00;;
14268;SDS011;7218;51.480;7.006;2023-01-01T13:48:25;6.97;;;2.53;;
14268;SDS011;7218;51.480;7.006;2023-01-01T13:51:03;8.73;;;4.13;;
14268;SDS011;7218;51.480;7.006;2023-01-01T13:53:53;6.32;;;3.65;;
14268;SDS011;7218;51.480;7.006;2023-01-01T13:56:36;8.85;;;3.35;;
14268;SDS011;7218;51.480;7.006;2023-01-01T13:59:24;8.18;;;2.80;;
14268;SDS011;7218;51.480;7.006;2023-01-01T14:02:14;8.73;;;2.75;;
14268;SDS011;7218;51.480;7.006;2023-01-01T14:04:46;8.20;;;2.42;;
14268;SDS011;7218;51.480;7.006;2023-01-01T14:07:19;5.68;;;1.92;;
14268;SDS011;7218;51.480;7.006;2023-01-01T14:09:52;4.57;;;1.98;;
14268;SDS011;7218;51.480;7.006;2023-01-01T14:12:19;6.55;;;1.95;;
14268;SDS011;7218;51.480;7.006;2023-01-01T14:14:46;6.80;;;2.05;;
14268;SDS011;7218;51.480;7.006;2023-01-01T14:17:13;7.38;;;2.00;;
14268;SDS011;7218;51.480;7.006;2023-01-01T14:19:41;7.85;;;2.10;;
14268;SDS011;7218;51.480;7.006;2023-01-01T14:22:09;4.75;;;1.70;;
14268;SDS011;7218;51.480;7.006;2023-01-01T14:24:39;7.28;;;1.73;;
14268;SDS011;7218;51.480;7.006;2023-01-01T14:27:10;7.10;;;1.83;;
14268;SDS011;7218;51.480;7.006;2023-01-01T14:29:42;9.63;;;2.25;;
14268;SDS011;7218;51.480;7.006;2023-01-01T14:32:13;5.68;;;1.92;;
14268;SDS011;7218;51.480;7.006;2023-01-01T14:34:46;6.25;;;2.10;;
14268;SDS011;7218;51.480;7.006;2023-01-01T14:37:18;5.38;;;2.10;;
14268;SDS011;7218;51.480;7.006;2023-01-01T14:40:03;3.95;;;1.80;;
14268;SDS011;7218;51.480;7.006;2023-01-01T14:42:31;5.53;;;2.13;;
14268;SDS011;7218;51.480;7.006;2023-01-01T14:45:00;5.03;;;2.15;;
14268;SDS011;7218;51.480;7.006;2023-01-01T14:47:28;8.55;;;2.13;;
14268;SDS011;7218;51.480;7.006;2023-01-01T14:49:59;6.15;;;2.10;;
14268;SDS011;7218;51.480;7.006;2023-01-01T14:52:29;5.75;;;2.03;;
14268;SDS011;7218;51.480;7.006;2023-01-01T14:54:59;6.15;;;2.00;;
14268;SDS011;7218;51.480;7.006;2023-01-01T14:57:28;6.15;;;2.28;;
14268;SDS011;7218;51.480;7.006;2023-01-01T14:59:58;7.40;;;2.45;;
14268;SDS011;7218;51.480;7.006;2023-01-01T15:02:25;7.03;;;2.03;;
14268;SDS011;7218;51.480;7.006;2023-01-01T15:04:54;6.75;;;2.10;;
14268;SDS011;7218;51.480;7.006;2023-01-01T15:07:23;7.03;;;2.42;;
14268;SDS011;7218;51.480;7.006;2023-01-01T15:09:51;5.63;;;2.42;;
14268;SDS011;7218;51.480;7.006;2023-01-01T15:12:18;7.63;;;2.20;;
14268;SDS011;7218;51.480;7.006;2023-01-01T15:14:47;8.20;;;2.05;;
14268;SDS011;7218;51.480;7.006;2023-01-01T15:17:18;5.57;;;1.60;;
14268;SDS011;7218;51.480;7.006;2023-01-01T15:19:46;4.38;;;1.80;;
14268;SDS011;7218;51.480;7.006;2023-01-01T15:22:26;5.38;;;2.25;;
14268;SDS011;7218;51.480;7.006;2023-01-01T15:24:55;6.10;;;2.35;;
14268;SDS011;7218;51.480;7.006;2023-01-01T15:27:23;5.53;;;2.17;;
14268;SDS011;7218;51.480;7.006;2023-01-01T15:29:52;6.80;;;2.20;;
14268;SDS011;7218;51.480;7.006;2023-01-01T15:32:23;7.72;;;2.17;;
14268;SDS011;7218;51.480;7.006;2023-01-01T15:34:52;6.70;;;1.70;;
14268;SDS011;7218;51.480;7.006;2023-01-01T15:37:21;7.85;;;2.28;;
14268;SDS011;7218;51.480;7.006;2023-01-01T15:39:55;7.53;;;2.47;;
14268;SDS011;7218;51.480;7.006;2023-01-01T15:42:30;7.07;;;2.30;;